Time;durP1;ratioP1;P1;durP2;ratioP2;P2;SDS_P1;SDS_P2;PMS_P1;PMS_P2;Temp;Humidity;BMP_temperature;BMP_pressure;BME280_temperature;BME280_humidity;BME280_pressure;Samples;Min_cycle;Max_cycle;Signal;HPM_P1;HPM_P2
2022/01/21 00:01:18;;;;;;;6.17;3.37;;;2.70;87.70;;;;;;5120350;28;20433;-44
2022/01/21 00:03:44;;;;;;;5.97;3.50;;;2.70;87.60;;;;;;5120385;28;20470;-45
2022/01/21 00:06:10;;;;;;;4.97;2.60;;;2.70;87.40;;;;;;5119734;28;20465;-44
2022/01/21 00:08:38;;;;;;;8.77;2.83;;;2.60;87.20;;;;;;5119898;28;20406;-44
2022/01/21 00:11:05;;;;;;;7.97;3.43;;;2.60;87.30;;;;;;5120095;28;20184;-44
2022/01/21 00:13:34;;;;;;;7.70;2.90;;;2.60;87.50;;;;;;5120285;28;20432;-44
2022/01/21 00:16:02;;;;;;;4.17;2.47;;;2.50;87.40;;;;;;5117088;28;20882;-44
2022/01/21 00:18:27;;;;;;;7.97;3.07;;;2.50;87.40;;;;;;5120000;28;21043;-44
2022/01/21 00:31:55;;;;;;;7.17;3.10;;;2.30;87.80;;;;;;5118450;28;20429;-44
2022/01/21 00:34:22;;;;;;;7.43;3.10;;;2.30;88.00;;;;;;5117194;28;20551;-45
2022/01/21 00:36:48;;;;;;;6.37;2.83;;;2.30;88.10;;;;;;5120268;28;20472;-44
2022/01/21 00:39:14;;;;;;;5.43;2.67;;;2.20;88.30;;;;;;5119911;28;20694;-45
2022/01/21 00:41:55;;;;;;;5.37;4.20;;;2.30;88.60;;;;;;5120161;28;20180;-43
2022/01/21 00:44:20;;;;;;;7.40;2.83;;;2.20;88.70;;;;;;5102319;28;20456;-45
2022/01/21 00:46:48;;;;;;;5.13;2.50;;;2.20;88.70;;;;;;5120036;28;20482;-44
2022/01/21 00:49:15;;;;;;;10.03;2.83;;;2.30;88.80;;;;;;5102071;28;20180;-44
2022/01/21 00:51:41;;;;;;;8.40;3.60;;;2.30;88.70;;;;;;5119374;28;20454;-44
2022/01/21 00:54:06;;;;;;;8.93;3.33;;;2.30;88.50;;;;;;5118716;28;20936;-44
2022/01/21 00:56:32;;;;;;;7.00;2.60;;;2.30;88.50;;;;;;5100853;28;20740;-44
2022/01/21 00:58:58;;;;;;;9.00;2.90;;;2.30;88.30;;;;;;5119270;28;20585;-44
2022/01/21 01:01:24;;;;;;;8.37;3.13;;;2.40;88.20;;;;;;5119084;28;20406;-44
2022/01/21 01:03:49;;;;;;;8.43;3.00;;;2.30;88.00;;;;;;5119348;28;20190;-44
2022/01/21 01:06:15;;;;;;;5.47;2.40;;;2.40;87.90;;;;;;5119675;28;20503;-44
2022/01/21 01:08:50;;;;;;;6.67;2.60;;;2.40;87.70;;;;;;5119122;28;20248;-44
2022/01/21 01:12:23;;;;;;;6.93;2.53;;;2.40;87.50;;;;;;5094994;28;20285;-44
2022/01/21 01:22:52;;;;;;;6.00;2.70;;;2.40;87.10;;;;;;5085177;28;20883;-43
2022/01/21 01:28:04;;;;;;;3.23;2.30;;;2.40;87.10;;;;;;5098407;28;20466;-42
2022/01/21 01:30:32;;;;;;;8.33;3.43;;;2.40;87.20;;;;;;5098770;28;20418;-43
2022/01/21 01:33:00;;;;;;;7.50;2.50;;;2.40;87.30;;;;;;5098257;28;20430;-43
2022/01/21 01:35:30;;;;;;;8.00;3.60;;;2.40;87.40;;;;;;5098588;28;20498;-44
2022/01/21 01:50:48;;;;;;;7.33;2.90;;;2.40;88.10;;;;;;5098456;28;20442;-44
2022/01/21 01:53:24;;;;;;;4.70;2.27;;;2.40;88.20;;;;;;5098295;28;20464;-45
2022/01/21 01:55:50;;;;;;;4.87;2.50;;;2.40;88.20;;;;;;5097760;28;20511;-44
2022/01/21 01:58:18;;;;;;;8.97;3.80;;;2.40;88.50;;;;;;5109037;28;20981;-42
2022/01/21 02:00:44;;;;;;;8.57;2.90;;;2.40;88.50;;;;;;5100913;28;20502;-44
2022/01/21 02:03:13;;;;;;;7.20;2.97;;;2.40;88.50;;;;;;5104695;28;20925;-44
2022/01/21 02:05:39;;;;;;;6.87;3.00;;;2.40;88.60;;;;;;5118107;28;20180;-43
2022/01/21 02:08:06;;;;;;;6.70;3.00;;;2.40;88.70;;;;;;5118158;28;20701;-43
2022/01/21 02:10:32;;;;;;;5.93;2.73;;;2.40;88.70;;;;;;5100900;28;20484;-43
2022/01/21 02:13:04;;;;;;;6.53;2.60;;;2.40;88.70;;;;;;5097903;28;20711;-43
2022/01/21 02:15:41;;;;;;;8.53;3.53;;;2.40;88.80;;;;;;5098108;28;20414;-42
2022/01/21 02:23:35;;;;;;;6.20;2.30;;;2.40;89.20;;;;;;5097916;28;20521;-44
2022/01/21 02:26:04;;;;;;;7.70;2.93;;;2.30;89.30;;;;;;5098059;28;20741;-44
2022/01/21 02:28:30;;;;;;;4.30;2.20;;;2.30;89.40;;;;;;5099177;28;20817;-44
2022/01/21 02:30:57;;;;;;;8.37;2.63;;;2.30;89.60;;;;;;5101958;28;20544;-44
2022/01/21 02:33:24;;;;;;;5.40;2.77;;;2.30;89.70;;;;;;5102133;28;20566;-43
2022/01/21 02:35:49;;;;;;;10.67;3.10;;;2.30;89.70;;;;;;5101826;28;20446;-44
2022/01/21 02:38:16;;;;;;;6.10;3.03;;;2.20;89.60;;;;;;5102180;28;20411;-44
2022/01/21 02:40:42;;;;;;;5.13;2.50;;;2.20;89.60;;;;;;5101561;28;20525;-44
2022/01/21 02:43:11;;;;;;;7.27;2.90;;;2.20;89.70;;;;;;5101814;28;20410;-44
2022/01/21 02:45:39;;;;;;;8.93;3.50;;;2.20;89.80;;;;;;5101728;28;20705;-44
2022/01/21 02:48:08;;;;;;;8.20;2.50;;;2.20;89.70;;;;;;5102019;28;20399;-44
2022/01/21 02:56:24;;;;;;;4.10;2.30;;;2.00;89.80;;;;;;5101038;28;20453;-44
2022/01/21 02:58:50;;;;;;;8.23;3.27;;;2.00;89.90;;;;;;5102165;28;20575;-44
2022/01/21 03:01:17;;;;;;;4.63;2.67;;;2.00;89.90;;;;;;5116294;28;20463;-44
2022/01/21 03:03:44;;;;;;;5.47;3.40;;;2.00;90.00;;;;;;5117369;28;20688;-44
2022/01/21 03:06:10;;;;;;;7.20;3.60;;;1.90;89.90;;;;;;5121725;28;20490;-44
2022/01/21 03:08:36;;;;;;;14.40;7.63;;;1.90;89.90;;;;;;5120429;28;20812;-44
2022/01/21 03:11:01;;;;;;;17.40;9.63;;;1.90;90.00;;;;;;5100638;28;20470;-44
2022/01/21 03:13:27;;;;;;;13.60;7.63;;;1.90;90.10;;;;;;5099859;28;20171;-44
2022/01/21 03:15:53;;;;;;;13.93;6.07;;;1.90;90.10;;;;;;5082465;28;20177;-44
2022/01/21 03:18:19;;;;;;;13.30;5.77;;;1.90;90.20;;;;;;5100099;28;20181;-43
2022/01/21 03:20:45;;;;;;;25.17;12.03;;;1.90;90.30;;;;;;5100273;28;20462;-44
2022/01/21 03:23:16;;;;;;;39.93;17.03;;;1.90;90.40;;;;;;5100212;28;20752;-44
2022/01/21 03:25:44;;;;;;;31.63;10.97;;;1.90;90.50;;;;;;5083444;28;20414;-44
2022/01/21 03:28:10;;;;;;;28.10;13.30;;;1.90;90.50;;;;;;5100764;28;20927;-44
2022/01/21 03:30:36;;;;;;;33.00;13.40;;;1.90;90.50;;;;;;5100686;28;20413;-44
2022/01/21 03:33:02;;;;;;;20.90;9.20;;;1.90;90.50;;;;;;5100852;28;20836;-43
2022/01/21 03:35:28;;;;;;;11.50;6.70;;;2.00;90.50;;;;;;5101197;28;20708;-44
2022/01/21 03:37:54;;;;;;;11.80;5.30;;;2.00;90.50;;;;;;5100625;28;20465;-44
2022/01/21 03:40:20;;;;;;;10.93;4.37;;;2.00;90.40;;;;;;5100102;28;20181;-44
2022/01/21 03:42:47;;;;;;;9.27;4.40;;;2.00;90.40;;;;;;5100788;28;20185;-44
2022/01/21 03:45:14;;;;;;;9.73;4.07;;;2.00;90.30;;;;;;5100256;28;20177;-44
2022/01/21 03:47:40;;;;;;;9.57;3.37;;;2.10;90.30;;;;;;5099851;28;20418;-44
2022/01/21 03:50:22;;;;;;;10.33;3.13;;;2.10;90.30;;;;;;5099692;28;20430;-44
2022/01/21 03:52:48;;;;;;;8.50;3.53;;;2.10;90.20;;;;;;5100092;28;20480;-44
2022/01/21 03:55:14;;;;;;;7.50;3.37;;;2.10;90.20;;;;;;5100325;28;20702;-44
2022/01/21 03:57:39;;;;;;;5.80;3.67;;;2.10;90.20;;;;;;5100114;28;20541;-42
2022/01/21 04:00:08;;;;;;;8.67;3.57;;;2.10;90.10;;;;;;5100331;28;20422;-44
2022/01/21 04:02:34;;;;;;;7.47;3.80;;;2.10;90.10;;;;;;5100614;28;20507;-44
2022/01/21 04:05:02;;;;;;;10.23;3.93;;;2.10;90.10;;;;;;5099977;28;20418;-44
2022/01/21 04:07:28;;;;;;;9.23;3.60;;;2.10;90.10;;;;;;5099969;28;20185;-43
2022/01/21 04:09:53;;;;;;;7.50;3.40;;;2.10;90.10;;;;;;5100367;28;20513;-44
2022/01/21 04:12:19;;;;;;;8.70;3.93;;;2.10;90.10;;;;;;5100335;28;20284;-44
2022/01/21 04:14:45;;;;;;;8.80;4.37;;;2.10;90.10;;;;;;5099324;28;20262;-44
2022/01/21 04:17:10;;;;;;;5.80;3.70;;;2.10;90.00;;;;;;5082148;28;20208;-44
2022/01/21 04:19:43;;;;;;;10.50;4.93;;;2.10;90.00;;;;;;5100398;28;20185;-44
2022/01/21 04:22:09;;;;;;;11.40;3.90;;;2.10;90.00;;;;;;5099781;28;20259;-43
2022/01/21 04:24:35;;;;;;;7.60;3.77;;;2.10;90.00;;;;;;5100098;28;20545;-44
2022/01/21 04:27:00;;;;;;;8.10;4.13;;;2.10;90.00;;;;;;5099498;28;20177;-42
2022/01/21 04:29:26;;;;;;;9.23;3.93;;;2.10;90.00;;;;;;5099864;28;20726;-44
2022/01/21 04:31:55;;;;;;;9.00;4.20;;;2.10;90.00;;;;;;5099814;28;20461;-43
2022/01/21 04:34:21;;;;;;;7.30;4.10;;;2.10;90.00;;;;;;5082072;28;20191;-44
2022/01/21 04:36:46;;;;;;;6.90;4.40;;;2.10;90.00;;;;;;5099473;28;20450;-43
2022/01/21 04:39:20;;;;;;;7.17;4.70;;;2.00;90.00;;;;;;5099615;28;20553;-43
2022/01/21 04:47:18;;;;;;;8.93;5.20;;;2.10;90.00;;;;;;5037281;28;20282;-43
2022/01/21 04:49:46;;;;;;;13.83;5.37;;;2.10;89.90;;;;;;5037501;28;20429;-43
2022/01/21 04:52:11;;;;;;;15.03;5.57;;;2.10;89.80;;;;;;5067305;28;20419;-43
2022/01/21 04:54:37;;;;;;;11.00;4.17;;;2.10;90.00;;;;;;5099322;28;20434;-43
2022/01/21 04:57:04;;;;;;;6.53;4.40;;;2.10;90.00;;;;;;5099261;28;20239;-43
2022/01/21 04:59:30;;;;;;;11.53;4.67;;;2.00;90.00;;;;;;5099090;28;20192;-43
2022/01/21 05:01:56;;;;;;;8.77;3.87;;;2.00;90.00;;;;;;5097916;28;20407;-43
2022/01/21 05:04:22;;;;;;;9.10;4.80;;;2.00;90.00;;;;;;5105167;28;20683;-46
2022/01/21 05:06:50;;;;;;;8.97;4.93;;;2.10;90.10;;;;;;5117630;28;20475;-46
2022/01/21 05:09:16;;;;;;;4.07;3.10;;;2.10;90.10;;;;;;5117270;28;20444;-46
2022/01/21 05:11:44;;;;;;;10.47;4.27;;;2.10;90.10;;;;;;5117536;28;20410;-47
2022/01/21 05:14:23;;;;;;;8.67;3.90;;;2.20;90.10;;;;;;5116464;28;20498;-47
2022/01/21 05:16:51;;;;;;;6.50;3.40;;;2.20;90.00;;;;;;5118238;28;20461;-48
2022/01/21 05:19:18;;;;;;;8.63;3.30;;;2.20;89.90;;;;;;5118018;28;20477;-48
2022/01/21 05:21:46;;;;;;;6.83;3.77;;;2.20;89.70;;;;;;5117503;28;20758;-48
2022/01/21 05:24:12;;;;;;;10.13;3.97;;;2.20;89.50;;;;;;5117134;28;20413;-45
2022/01/21 05:26:40;;;;;;;8.97;3.43;;;2.30;89.60;;;;;;5115874;28;20402;-47
2022/01/21 05:29:09;;;;;;;15.93;4.07;;;2.30;89.40;;;;;;5116709;28;20473;-46
2022/01/21 05:31:34;;;;;;;10.93;4.50;;;2.30;89.30;;;;;;5115927;28;20413;-47
2022/01/21 05:34:01;;;;;;;7.97;3.27;;;2.30;89.10;;;;;;5116598;28;20483;-46
2022/01/21 05:36:27;;;;;;;9.30;3.80;;;2.30;89.20;;;;;;5116863;28;20789;-47
2022/01/21 05:38:54;;;;;;;5.97;3.30;;;2.30;89.10;;;;;;5116929;28;20444;-47
2022/01/21 05:41:22;;;;;;;9.40;4.20;;;2.30;89.00;;;;;;5117643;28;20429;-47
2022/01/21 05:43:49;;;;;;;7.53;3.70;;;2.30;89.00;;;;;;5117802;28;20410;-46
2022/01/21 05:48:59;;;;;;;7.20;4.37;;;2.30;89.00;;;;;;5118409;28;20737;-46
2022/01/21 05:51:24;;;;;;;6.40;4.70;;;2.30;89.00;;;;;;5118355;28;20441;-46
2022/01/21 05:53:50;;;;;;;8.33;4.60;;;2.30;89.00;;;;;;5117198;28;20184;-47
2022/01/21 05:56:16;;;;;;;7.67;5.40;;;2.30;89.00;;;;;;5117506;28;20262;-47
2022/01/21 05:58:41;;;;;;;14.17;6.00;;;2.30;89.00;;;;;;5117196;28;20267;-47
2022/01/21 06:01:07;;;;;;;11.53;4.23;;;2.30;88.90;;;;;;5116883;28;20172;-47
2022/01/21 06:03:33;;;;;;;7.80;4.20;;;2.30;88.90;;;;;;5099182;28;20165;-47
2022/01/21 06:06:01;;;;;;;13.97;4.60;;;2.40;89.00;;;;;;5118088;28;20457;-47
2022/01/21 06:08:27;;;;;;;8.97;4.40;;;2.40;88.90;;;;;;5098274;28;20440;-47
2022/01/21 06:10:53;;;;;;;9.37;4.53;;;2.40;88.70;;;;;;5114059;28;20639;-47
2022/01/21 06:13:19;;;;;;;12.80;5.10;;;2.40;88.70;;;;;;5114865;28;20184;-47
2022/01/21 06:15:48;;;;;;;5.77;4.00;;;2.30;88.70;;;;;;5079262;28;20445;-47
2022/01/21 06:18:14;;;;;;;9.00;5.43;;;2.30;88.70;;;;;;5095311;28;20418;-47
2022/01/21 06:20:40;;;;;;;8.53;4.53;;;2.30;88.70;;;;;;5112764;28;20478;-47
2022/01/21 06:23:05;;;;;;;10.67;5.40;;;2.30;88.70;;;;;;5095177;28;20171;-47
2022/01/21 06:25:31;;;;;;;7.70;4.43;;;2.30;88.70;;;;;;5113806;28;20180;-47
2022/01/21 06:27:56;;;;;;;7.90;4.30;;;2.30;88.90;;;;;;5113077;28;20236;-47
2022/01/21 06:30:22;;;;;;;11.00;4.60;;;2.30;89.00;;;;;;5113481;28;20195;-46
2022/01/21 06:32:48;;;;;;;10.33;6.20;;;2.30;88.90;;;;;;5114519;28;20164;-46
2022/01/21 06:35:13;;;;;;;9.30;5.03;;;2.30;88.80;;;;;;5113014;28;20176;-47
2022/01/21 06:37:45;;;;;;;10.27;4.40;;;2.20;88.70;;;;;;5113146;28;20200;-46
2022/01/21 06:40:11;;;;;;;6.17;3.93;;;2.20;88.70;;;;;;5059939;28;20216;-47
2022/01/21 06:42:37;;;;;;;7.30;4.10;;;2.20;88.70;;;;;;5093104;28;20415;-47
2022/01/21 06:45:04;;;;;;;10.83;5.17;;;2.20;88.80;;;;;;5073816;28;20426;-47
2022/01/21 06:47:30;;;;;;;10.13;4.27;;;2.20;88.90;;;;;;5092189;28;20196;-47
2022/01/21 06:49:58;;;;;;;8.43;4.60;;;2.20;89.10;;;;;;5092292;28;20825;-46
2022/01/21 06:52:25;;;;;;;10.97;4.80;;;2.20;89.30;;;;;;5075065;28;20204;-47
2022/01/21 06:54:51;;;;;;;9.47;4.07;;;2.20;89.20;;;;;;5092973;28;20509;-47
2022/01/21 06:57:17;;;;;;;9.77;4.77;;;2.20;89.20;;;;;;5094345;28;20462;-47
2022/01/21 06:59:42;;;;;;;8.03;4.17;;;2.20;89.30;;;;;;5094586;28;20225;-46
2022/01/21 07:02:08;;;;;;;7.43;4.63;;;2.20;89.40;;;;;;5092554;28;20169;-47
2022/01/21 07:04:34;;;;;;;12.90;5.20;;;2.20;89.40;;;;;;5093781;28;20185;-46
2022/01/21 07:07:00;;;;;;;8.03;4.63;;;2.20;89.50;;;;;;5093399;28;20204;-47
2022/01/21 07:09:26;;;;;;;8.93;4.23;;;2.20;89.70;;;;;;5092908;28;20246;-47
2022/01/21 07:11:52;;;;;;;8.70;4.63;;;2.20;89.70;;;;;;5094100;28;20415;-47
2022/01/21 07:14:19;;;;;;;9.87;4.23;;;2.20;89.80;;;;;;5093078;28;20530;-46
2022/01/21 07:16:45;;;;;;;9.57;4.33;;;2.20;89.80;;;;;;5096286;28;20886;-47
2022/01/21 07:19:10;;;;;;;7.90;4.40;;;2.30;89.80;;;;;;5096996;28;20430;-47
2022/01/21 07:21:36;;;;;;;8.23;4.77;;;2.30;89.80;;;;;;5098013;28;20179;-48
2022/01/21 07:24:02;;;;;;;6.90;4.47;;;2.30;89.60;;;;;;5097546;28;20251;-48
2022/01/21 07:26:27;;;;;;;10.60;4.37;;;2.30;89.60;;;;;;5099879;28;20242;-48
2022/01/21 07:28:55;;;;;;;6.20;4.00;;;2.30;89.50;;;;;;5099037;28;20260;-48
2022/01/21 07:31:21;;;;;;;9.03;5.50;;;2.30;89.60;;;;;;5098950;28;20691;-48
2022/01/21 07:33:49;;;;;;;6.77;4.80;;;2.30;90.00;;;;;;5097629;28;20431;-48
2022/01/21 07:36:14;;;;;;;13.13;5.17;;;2.40;89.50;;;;;;5099900;28;20468;-48
2022/01/21 07:38:43;;;;;;;9.70;4.83;;;2.40;89.40;;;;;;5099244;28;20442;-48
2022/01/21 07:41:09;;;;;;;10.60;7.23;;;2.40;89.20;;;;;;5080606;28;20183;-48
2022/01/21 07:43:35;;;;;;;7.83;4.67;;;2.40;89.00;;;;;;5097879;28;20772;-48
2022/01/21 07:46:03;;;;;;;8.50;5.03;;;2.50;89.00;;;;;;5096506;28;20193;-48
2022/01/21 07:48:28;;;;;;;8.37;5.10;;;2.50;88.90;;;;;;5096548;28;20407;-48
2022/01/21 07:50:54;;;;;;;11.53;5.30;;;2.50;88.90;;;;;;5096957;28;20433;-47
2022/01/21 07:53:19;;;;;;;9.47;5.60;;;2.60;88.90;;;;;;5063742;28;20161;-47
2022/01/21 07:55:49;;;;;;;8.30;4.97;;;2.60;88.70;;;;;;5098205;28;20187;-48
2022/01/21 07:58:16;;;;;;;12.00;4.83;;;2.70;88.30;;;;;;5098108;28;20188;-47
2022/01/21 08:00:41;;;;;;;10.90;6.00;;;2.70;88.00;;;;;;5081707;28;20423;-47
2022/01/21 08:03:07;;;;;;;13.13;5.07;;;2.70;87.90;;;;;;5081735;28;20416;-48
2022/01/21 08:05:34;;;;;;;9.03;5.50;;;2.80;87.60;;;;;;5099245;28;20248;-48
2022/01/21 08:08:01;;;;;;;10.37;5.40;;;2.80;87.20;;;;;;5098672;28;20522;-48
2022/01/21 08:10:26;;;;;;;8.20;5.77;;;2.80;87.00;;;;;;5079757;28;20829;-48
2022/01/21 08:12:52;;;;;;;10.43;5.53;;;2.90;87.10;;;;;;5107689;28;20421;-48
2022/01/21 08:15:18;;;;;;;15.10;8.67;;;2.90;86.80;;;;;;5101109;28;20705;-48
2022/01/21 08:17:44;;;;;;;12.77;7.73;;;3.00;86.70;;;;;;5114183;28;20597;-48
2022/01/21 08:20:13;;;;;;;20.57;8.87;;;3.10;86.60;;;;;;5084468;28;20190;-48
2022/01/21 08:22:40;;;;;;;14.90;7.67;;;3.20;86.30;;;;;;5108622;28;20851;-48
2022/01/21 08:25:08;;;;;;;11.43;7.90;;;3.40;86.10;;;;;;5064660;28;20437;-48
2022/01/21 08:27:34;;;;;;;12.03;7.00;;;3.50;85.60;;;;;;5099222;28;20407;-48
2022/01/21 08:29:59;;;;;;;9.93;6.13;;;3.60;85.00;;;;;;5098428;28;20429;-47
2022/01/21 08:32:25;;;;;;;13.70;7.50;;;3.80;84.50;;;;;;5095583;28;20809;-47
2022/01/21 08:34:51;;;;;;;11.90;6.20;;;3.90;84.00;;;;;;5077967;28;20177;-47
2022/01/21 08:37:17;;;;;;;12.90;6.20;;;4.10;83.90;;;;;;5095002;28;20224;-48
2022/01/21 08:39:43;;;;;;;10.60;6.33;;;4.30;83.20;;;;;;5094760;28;20177;-47
2022/01/21 08:42:10;;;;;;;21.30;8.43;;;4.40;82.30;;;;;;5074753;28;20535;-48
2022/01/21 08:44:35;;;;;;;14.77;8.70;;;4.50;81.60;;;;;;5078032;28;20423;-47
2022/01/21 08:47:02;;;;;;;14.80;10.80;;;4.60;81.30;;;;;;5096714;28;20427;-47
2022/01/21 08:49:30;;;;;;;15.33;9.87;;;4.70;80.80;;;;;;5095914;28;20185;-47
2022/01/21 08:51:59;;;;;;;15.70;8.53;;;4.70;80.50;;;;;;5093188;28;20434;-47
2022/01/21 08:54:26;;;;;;;11.40;7.70;;;4.70;80.30;;;;;;5094275;28;20419;-41
2022/01/21 08:56:53;;;;;;;14.40;8.40;;;4.70;80.10;;;;;;5077525;28;20543;-41
2022/01/21 08:59:19;;;;;;;9.47;6.17;;;4.70;80.50;;;;;;5095875;28;20829;-40
2022/01/21 09:01:48;;;;;;;10.17;6.33;;;4.70;79.40;;;;;;5096134;28;20902;-42
2022/01/21 09:04:15;;;;;;;10.17;5.77;;;4.70;78.90;;;;;;5096470;28;20427;-42
2022/01/21 09:06:40;;;;;;;11.57;5.87;;;4.80;78.90;;;;;;5097142;28;20415;-42
2022/01/21 09:09:06;;;;;;;8.60;6.17;;;4.80;78.50;;;;;;5097647;28;20435;-40
2022/01/21 09:11:32;;;;;;;10.43;6.83;;;4.90;78.30;;;;;;5098530;28;20233;-40
2022/01/21 09:13:58;;;;;;;10.10;5.60;;;4.80;78.10;;;;;;5098996;28;20229;-41
2022/01/21 09:16:24;;;;;;;7.60;4.57;;;4.80;78.10;;;;;;5098787;28;20307;-40
2022/01/21 09:18:58;;;;;;;9.70;5.90;;;4.80;78.00;;;;;;5098542;28;20828;-41
2022/01/21 09:21:28;;;;;;;8.03;5.70;;;4.70;77.80;;;;;;5098829;28;20417;-41
2022/01/21 09:23:55;;;;;;;9.07;5.97;;;4.70;78.20;;;;;;5098492;28;20864;-40
2022/01/21 09:26:23;;;;;;;9.70;5.50;;;4.70;78.40;;;;;;5078639;28;20407;-40
2022/01/21 09:28:50;;;;;;;12.33;5.83;;;4.70;78.60;;;;;;5095760;28;20474;-40
2022/01/21 09:31:16;;;;;;;13.23;5.43;;;4.80;78.80;;;;;;5097053;28;20458;-41
2022/01/21 09:33:42;;;;;;;7.53;4.67;;;4.90;78.70;;;;;;5097583;28;20422;-43
2022/01/21 09:36:10;;;;;;;11.63;6.50;;;5.00;78.50;;;;;;5099470;28;20462;-41
2022/01/21 09:38:36;;;;;;;8.70;4.77;;;5.20;78.20;;;;;;5097329;28;20417;-41
2022/01/21 09:41:02;;;;;;;7.80;5.37;;;5.40;77.80;;;;;;5096811;28;20599;-39
2022/01/21 09:43:28;;;;;;;7.47;5.00;;;5.50;77.20;;;;;;5097164;28;20164;-41
2022/01/21 09:45:55;;;;;;;8.23;5.60;;;5.70;76.60;;;;;;5096743;28;20932;-41
2022/01/21 09:48:29;;;;;;;12.20;5.13;;;5.80;76.30;;;;;;5096598;28;20185;-41
2022/01/21 09:50:58;;;;;;;7.87;4.80;;;6.00;75.50;;;;;;5097872;28;20717;-41
2022/01/21 09:53:30;;;;;;;11.53;5.50;;;6.10;74.90;;;;;;5096468;28;20738;-40
2022/01/21 09:56:05;;;;;;;9.50;4.90;;;6.10;74.00;;;;;;5078942;28;20475;-40
2022/01/21 09:58:32;;;;;;;7.10;3.90;;;6.20;73.90;;;;;;5078703;28;20434;-39
2022/01/21 10:01:01;;;;;;;13.53;5.00;;;6.40;73.40;;;;;;5097154;28;20445;-38
2022/01/21 10:03:27;;;;;;;10.20;4.97;;;6.50;72.90;;;;;;5079394;28;20409;-38
2022/01/21 10:05:54;;;;;;;6.73;5.03;;;6.90;72.50;;;;;;5079255;28;20696;-43
2022/01/21 10:08:21;;;;;;;7.93;4.83;;;7.20;71.70;;;;;;5096941;28;20177;-39
2022/01/21 10:10:47;;;;;;;8.00;5.27;;;7.70;70.40;;;;;;5096366;28;20808;-40
2022/01/21 10:13:17;;;;;;;10.13;5.10;;;8.10;68.70;;;;;;5097132;28;20436;-40
2022/01/21 10:15:43;;;;;;;10.23;5.00;;;8.50;67.30;;;;;;5097056;28;20172;-40
2022/01/21 10:18:26;;;;;;;6.30;4.27;;;8.80;65.30;;;;;;5096444;28;20929;-40
2022/01/21 10:21:04;;;;;;;11.17;5.10;;;8.90;63.00;;;;;;5096748;28;20168;-39
2022/01/21 10:23:33;;;;;;;8.87;4.97;;;8.80;62.00;;;;;;5095271;28;20416;-39
2022/01/21 10:26:06;;;;;;;7.10;4.10;;;8.60;61.80;;;;;;5095413;28;20409;-39
2022/01/21 10:28:33;;;;;;;6.67;4.70;;;8.60;62.10;;;;;;5096599;28;20752;-39
2022/01/21 10:31:27;;;;;;;10.50;5.10;;;8.60;61.60;;;;;;5095279;28;20403;-42
2022/01/21 10:33:56;;;;;;;11.00;5.17;;;8.60;61.20;;;;;;5093243;28;20513;-40
2022/01/21 10:36:28;;;;;;;6.60;4.60;;;8.50;60.70;;;;;;5095457;28;20477;-40
2022/01/21 10:39:05;;;;;;;5.20;3.83;;;8.60;60.80;;;;;;5096526;28;20412;-39
2022/01/21 10:41:33;;;;;;;8.83;4.40;;;8.70;60.40;;;;;;5080282;28;20487;-39
2022/01/21 10:44:15;;;;;;;6.53;4.33;;;8.90;59.70;;;;;;5097029;28;20422;-40
2022/01/21 10:46:46;;;;;;;6.87;4.43;;;8.90;59.20;;;;;;5096784;28;20495;-40
2022/01/21 10:49:13;;;;;;;7.90;4.20;;;8.90;59.00;;;;;;5096180;28;20395;-40
2022/01/21 10:51:41;;;;;;;12.57;4.40;;;8.80;58.90;;;;;;5098649;28;20469;-39
2022/01/21 10:54:17;;;;;;;7.07;4.17;;;9.00;59.10;;;;;;5099288;28;20712;-40
2022/01/21 10:57:22;;;;;;;6.50;3.67;;;8.90;58.70;;;;;;5099962;28;20470;-42
2022/01/21 10:59:51;;;;;;;8.60;4.30;;;8.60;58.60;;;;;;5099246;28;20804;-47
2022/01/21 11:02:53;;;;;;;8.07;4.60;;;8.50;58.80;;;;;;5097490;28;20411;-41
2022/01/21 11:05:26;;;;;;;6.10;3.90;;;8.30;58.80;;;;;;5076511;28;20417;-43
2022/01/21 11:08:08;;;;;;;7.90;4.43;;;8.40;58.90;;;;;;5097784;28;20545;-39
2022/01/21 11:10:35;;;;;;;5.17;3.50;;;8.40;58.50;;;;;;5097669;28;20509;-39
2022/01/21 11:13:18;;;;;;;6.30;3.50;;;8.40;58.40;;;;;;5097877;28;20418;-40
2022/01/21 11:15:46;;;;;;;7.23;3.30;;;8.70;58.60;;;;;;5115048;28;20426;-40
2022/01/21 11:18:15;;;;;;;9.70;5.07;;;8.90;58.40;;;;;;5118421;28;20559;-38
2022/01/21 11:20:42;;;;;;;6.83;4.40;;;9.30;57.90;;;;;;5117928;28;20422;-41
2022/01/21 11:23:09;;;;;;;10.87;5.03;;;9.60;57.30;;;;;;5118070;28;20434;-41
2022/01/21 11:25:44;;;;;;;8.47;3.73;;;9.90;56.30;;;;;;5118365;28;20405;-41
2022/01/21 11:28:16;;;;;;;6.63;3.97;;;10.40;55.50;;;;;;5097504;28;20472;-41
2022/01/21 11:30:42;;;;;;;9.90;4.87;;;10.90;54.70;;;;;;5079453;28;20457;-39
2022/01/21 11:33:08;;;;;;;9.83;5.00;;;11.30;54.10;;;;;;5097671;28;20831;-40
2022/01/21 11:35:34;;;;;;;6.50;4.60;;;11.60;53.30;;;;;;5079776;28;20669;-42
2022/01/21 11:38:05;;;;;;;10.00;4.80;;;11.80;52.70;;;;;;5097712;28;20527;-40
2022/01/21 11:40:31;;;;;;;14.33;7.20;;;12.00;51.80;;;;;;5098345;28;20444;-39
2022/01/21 11:42:57;;;;;;;11.37;5.80;;;11.90;50.80;;;;;;5098602;28;20411;-41
2022/01/21 11:48:50;;;;;;;6.77;4.20;;;11.40;50.20;;;;;;5081730;28;20421;-40
2022/01/21 11:50:56;;;;;;;6.93;4.20;;;11.20;50.10;;;;;;5098795;28;20426;-41
2022/01/21 11:53:49;;;;;;;7.60;4.20;;;10.90;50.20;;;;;;5099091;28;21026;-41
2022/01/21 11:56:38;;;;;;;5.90;4.17;;;10.70;50.00;;;;;;5132508;27;20283;-41
2022/01/21 11:59:43;;;;;;;11.97;4.40;;;10.40;50.00;;;;;;5142697;27;20639;-41
2022/01/21 12:02:21;;;;;;;5.73;3.77;;;10.20;50.30;;;;;;5136157;27;20725;-40
2022/01/21 12:04:55;;;;;;;7.10;3.87;;;10.20;50.50;;;;;;5138203;27;20505;-40
2022/01/21 12:07:44;;;;;;;5.03;3.20;;;10.10;50.40;;;;;;5137615;27;20868;-42
2022/01/21 12:10:20;;;;;;;5.87;4.07;;;9.90;51.10;;;;;;5136677;27;20780;-39
2022/01/21 12:12:47;;;;;;;7.80;3.70;;;9.90;51.30;;;;;;5138898;27;20397;-39
2022/01/21 12:20:43;;;;;;;5.83;2.67;;;9.60;51.40;;;;;;5119918;27;20418;-39
2022/01/21 12:23:14;;;;;;;4.30;2.90;;;9.60;51.50;;;;;;5119611;27;20811;-40
2022/01/21 12:26:17;;;;;;;7.23;3.30;;;9.60;51.60;;;;;;5120049;27;21074;-39
2022/01/21 12:28:43;;;;;;;7.17;3.50;;;9.70;51.70;;;;;;5135877;27;20451;-39
2022/01/21 12:31:13;;;;;;;6.90;3.20;;;9.70;51.60;;;;;;5137284;27;20456;-40
2022/01/21 12:33:57;;;;;;;5.97;3.00;;;9.80;51.50;;;;;;5118648;27;20493;-41
2022/01/21 12:36:30;;;;;;;9.60;2.80;;;10.00;50.40;;;;;;5136233;27;20460;-39
2022/01/21 12:41:32;;;;;;;4.90;2.40;;;10.40;49.50;;;;;;5135287;27;20732;-41
2022/01/21 12:44:05;;;;;;;5.57;2.60;;;10.60;49.20;;;;;;5133731;27;20415;-40
2022/01/21 12:46:34;;;;;;;5.50;2.40;;;10.70;48.80;;;;;;5134172;27;20876;-40
2022/01/21 12:49:02;;;;;;;3.47;2.40;;;10.80;48.60;;;;;;5134732;27;20502;-42
2022/01/21 12:56:47;;;;;;;4.97;2.40;;;10.90;48.20;;;;;;5135749;27;20640;-40
2022/01/21 12:59:29;;;;;;;7.60;3.00;;;10.70;48.00;;;;;;5137763;27;20405;-40
2022/01/21 13:01:57;;;;;;;8.40;2.30;;;10.40;48.30;;;;;;5137904;27;20488;-40
2022/01/21 13:04:28;;;;;;;6.97;2.63;;;10.20;48.50;;;;;;5136415;27;20694;-40
2022/01/21 13:07:06;;;;;;;5.83;2.23;;;10.00;48.40;;;;;;5137171;27;20428;-40
2022/01/21 13:09:51;;;;;;;5.47;2.20;;;9.80;49.60;;;;;;5121978;27;20854;-40
2022/01/21 13:12:20;;;;;;;9.77;3.87;;;9.70;50.00;;;;;;5116299;28;20429;-40
2022/01/21 13:14:55;;;;;;;8.03;2.87;;;9.40;50.10;;;;;;5116097;28;20999;-41
2022/01/21 13:17:23;;;;;;;7.30;2.50;;;9.10;50.40;;;;;;5114661;28;20483;-40
2022/01/21 13:19:56;;;;;;;5.63;2.40;;;8.90;50.70;;;;;;5115972;28;20474;-40
2022/01/21 13:22:29;;;;;;;4.40;2.13;;;8.60;51.20;;;;;;5115073;28;20432;-39
2022/01/21 13:25:08;;;;;;;5.27;2.23;;;8.40;51.50;;;;;;5113352;28;20421;-38
2022/01/21 13:27:48;;;;;;;7.47;2.37;;;8.30;51.90;;;;;;5112188;28;20421;-40
2022/01/21 13:30:15;;;;;;;3.10;2.33;;;8.10;52.50;;;;;;5113587;28;20426;-39
2022/01/21 13:32:42;;;;;;;6.63;2.17;;;7.90;52.80;;;;;;5117010;28;20525;-40
2022/01/21 13:35:12;;;;;;;9.27;2.73;;;7.80;53.20;;;;;;5117320;28;20469;-39
2022/01/21 13:37:40;;;;;;;8.77;2.70;;;7.70;53.70;;;;;;5115933;28;20742;-39
2022/01/21 13:40:08;;;;;;;5.43;2.17;;;7.70;54.30;;;;;;5113658;28;20418;-39
2022/01/21 13:42:35;;;;;;;6.23;2.30;;;7.60;54.60;;;;;;5114151;28;20445;-39
2022/01/21 13:45:05;;;;;;;4.67;2.40;;;7.50;55.00;;;;;;5094190;28;20520;-38
2022/01/21 13:47:33;;;;;;;4.50;2.40;;;7.50;55.30;;;;;;5112870;28;20417;-39
2022/01/21 13:50:09;;;;;;;4.93;2.47;;;7.50;55.60;;;;;;5113482;28;20409;-39
2022/01/21 13:52:52;;;;;;;9.00;2.47;;;7.40;55.80;;;;;;5114171;28;20420;-40
2022/01/21 13:55:29;;;;;;;7.40;2.50;;;7.40;56.00;;;;;;5115576;28;20461;-39
2022/01/21 13:57:56;;;;;;;9.60;2.43;;;7.30;56.00;;;;;;5116328;28;20461;-41
2022/01/21 14:00:31;;;;;;;5.43;2.10;;;7.20;56.20;;;;;;5115616;28;20426;-40
2022/01/21 14:03:11;;;;;;;8.40;2.60;;;7.20;56.40;;;;;;5116702;28;20489;-41
2022/01/21 14:05:55;;;;;;;6.13;2.90;;;7.10;56.50;;;;;;5114997;28;20449;-39
2022/01/21 14:08:37;;;;;;;8.40;3.53;;;7.00;56.60;;;;;;5115438;28;20986;-39
2022/01/21 14:11:13;;;;;;;4.03;1.67;;;7.00;56.70;;;;;;5115796;28;20437;-42
2022/01/21 14:13:49;;;;;;;6.13;1.87;;;7.50;92.30;;;;;;5116131;28;20476;-40